Randall, Minnesota
Current Conditions -  °F | °C
As of 6:58 PM on Wednesday 17 Dec 2014 (Local Time) from KLXL Reporting Station
Clear Clear  
Wind Chill: 10°   Ceiling: Unl
Heat Index: 10°   Visibility: 10mi
Dew Point:   Wind: 0mph
Humidity: 85%   Direction: NA
Pressure: 30.3"   Gusts: NA
Location:  46.09°N, 94.5°W
Report Text: KLXL 180058Z AUTO 00000KT 10SM CLR M12/M14 A3030 RMK AO2
Loading
Personal Weather Stations






























Interactive Weather Map New forecast layout! Learn more

10-Day Weather Forecast

Advertisements
Track Severe Weather on mobile